Portada
METAR-TAF:

METAR-TAF

Aeropuertos :

Fuerteventura, España

Aeropuerto de Fuerteventura

latitud: 28-27N, longitud: 013-52W, altitud: 22 m

Observación

El informe se hizo hace 18 minutos, a las 05:00 UTC
Viento 6 kt del norte
Temperatura 24°C
Humedad 69%
Presión 1016 hPa
Visibilidad 10 km o más
Escasas nubes a una altura de 2000 ft

METAR: GCFV 240500Z 35006KT 9999 FEW020 24/18 Q1016

Hora: 06:18 (05:18 UTC)

Pronóstico

El informe se hizo hace 3 horas y 18 minutos, a las 02:00 UTC
Pronóstico válido del 24 a las 03 UTC al 25 a las 03 UTC
Viento 7 kt del norte
Visibilidad: 9000 m
Escasas nubes a una altura de 1500 ft
Evolucionando progresivamente
del 24 a las 07 UTC al 24 a las 09 UTC
Viento 12 kt del noreste

TAF: GCFV 240200Z 2403/2503 35007KT 9000 FEW015 TX30/2415Z TN24/2405Z BECMG 2407/2409 05012KT

Observaciones y pronósticos meteorológicos de más de 4000 aeropuertos (mensajes METAR y TAF).

Los puntos amarillos y rojos representan las estaciones disponibles.

Ponga el ratón en el punto deseado para ver el nombre de la estación.

Haga clic para ver las observaciones y los pronósticos meteorológicos.

Para cambiar el mapa : haga clic en los botones verdes con una cruz de color negro para hacer un zoom, en el botón verde con un guión para alejar o en las flechas verdes para mapas adyacentes.


METAR-TAF: